Time;durP1;ratioP1;P1;durP2;ratioP2;P2;SDS_P1;SDS_P2;PMS_P1;PMS_P2;Temp;Humidity;BMP_temperature;BMP_pressure;BME280_temperature;BME280_humidity;BME280_pressure;Samples;Min_cycle;Max_cycle;Signal;HPM_P1;HPM_P2
2023/03/05 00:00:34;;;;;;;;;;;;;;;5.61;90.86;99308.19;5093143;28;19994;-36
2023/03/05 00:02:59;;;;;;;;;;;;;;;5.67;90.95;99307.47;5093283;28;19919;-36
2023/03/05 00:05:25;;;;;;;;;;;;;;;5.56;91.91;99310.56;5093072;28;20007;-36
2023/03/05 00:07:50;;;;;;;;;;;;;;;5.56;92.65;99311.41;5093011;28;20559;-36
2023/03/05 00:10:15;;;;;;;;;;;;;;;5.45;93.06;99310.00;5093078;28;19947;-37
2023/03/05 00:12:40;;;;;;;;;;;;;;;5.43;93.26;99309.38;5092967;28;19912;-36
2023/03/05 00:15:06;;;;;;;;;;;;;;;5.68;92.43;99311.75;5093045;28;19980;-37
2023/03/05 00:17:31;;;;;;;;;;;;;;;5.47;92.86;99310.66;5092778;28;20299;-36
2023/03/05 00:19:57;;;;;;;;;;;;;;;5.65;92.89;99312.94;5092993;28;19954;-36
2023/03/05 00:22:22;;;;;;;;;;;;;;;5.67;91.84;99316.22;5092575;28;20368;-36
2023/03/05 00:24:51;;;;;;;;;;;;;;;5.69;90.85;99305.47;5092897;28;20433;-36
2023/03/05 00:27:16;;;;;;;;;;;;;;;5.48;91.83;99301.75;5092776;28;20006;-36
2023/03/05 00:29:41;;;;;;;;;;;;;;;5.61;90.73;99305.56;5092594;28;19999;-36
2023/03/05 00:32:07;;;;;;;;;;;;;;;5.60;91.15;99296.84;5092710;28;20328;-36
2023/03/05 00:34:32;;;;;;;;;;;;;;;5.54;90.66;99289.66;5092570;28;19966;-35
2023/03/05 00:36:57;;;;;;;;;;;;;;;5.35;91.06;99285.72;5092668;28;19912;-36
2023/03/05 00:39:23;;;;;;;;;;;;;;;5.26;91.41;99284.97;5092478;28;19985;-36
2023/03/05 00:41:49;;;;;;;;;;;;;;;5.23;91.40;99281.88;5092491;28;19912;-35
2023/03/05 00:44:14;;;;;;;;;;;;;;;5.37;91.46;99277.59;5092337;28;19923;-35
2023/03/05 00:46:39;;;;;;;;;;;;;;;5.31;91.21;99279.13;5092139;28;20257;-36
2023/03/05 00:49:05;;;;;;;;;;;;;;;5.33;91.57;99281.59;5092382;28;20070;-36
2023/03/05 00:51:31;;;;;;;;;;;;;;;5.31;91.28;99273.06;5092292;28;19912;-35
2023/03/05 00:53:56;;;;;;;;;;;;;;;5.21;92.36;99268.84;5092267;28;19912;-36
2023/03/05 00:56:21;;;;;;;;;;;;;;;5.31;93.16;99268.59;5092307;28;19919;-36
2023/03/05 00:58:47;;;;;;;;;;;;;;;5.23;92.60;99266.03;5092141;28;19943;-36
2023/03/05 01:01:13;;;;;;;;;;;;;;;5.49;91.05;99258.50;5092113;28;19961;-36
2023/03/05 01:03:38;;;;;;;;;;;;;;;5.27;91.32;99268.16;5092053;28;20028;-36
2023/03/05 01:06:04;;;;;;;;;;;;;;;5.36;90.86;99266.22;5091986;28;19912;-35
2023/03/05 01:08:29;;;;;;;;;;;;;;;5.21;91.22;99265.41;5091800;28;19928;-36
2023/03/05 01:10:55;;;;;;;;;;;;;;;5.07;92.26;99269.66;5091755;28;19916;-35
2023/03/05 01:13:20;;;;;;;;;;;;;;;5.33;92.21;99271.88;5091917;28;19913;-36
2023/03/05 01:15:47;;;;;;;;;;;;;;;5.31;92.94;99270.41;5091374;28;19912;-36
2023/03/05 01:18:13;;;;;;;;;;;;;;;5.43;91.67;99275.06;5091542;28;19912;-36
2023/03/05 01:20:38;;;;;;;;;;;;;;;5.20;92.04;99271.69;5091568;28;19916;-37
2023/03/05 01:23:03;;;;;;;;;;;;;;;5.13;91.96;99266.31;5091247;28;19977;-37
2023/03/05 01:25:29;;;;;;;;;;;;;;;4.97;91.45;99264.66;5091365;28;19994;-37
2023/03/05 01:27:55;;;;;;;;;;;;;;;4.90;91.48;99261.09;5091149;28;20439;-37
2023/03/05 01:30:20;;;;;;;;;;;;;;;4.96;90.36;99260.34;5091599;28;19908;-37
2023/03/05 01:32:45;;;;;;;;;;;;;;;4.86;90.89;99254.53;5091595;28;20375;-35
2023/03/05 01:35:15;;;;;;;;;;;;;;;4.94;91.02;99253.63;5090566;28;20413;-37
2023/03/05 01:37:40;;;;;;;;;;;;;;;4.90;92.77;99250.53;5090881;28;19912;-35
2023/03/05 01:40:06;;;;;;;;;;;;;;;5.20;92.99;99248.75;5090764;28;20359;-36
2023/03/05 01:42:31;;;;;;;;;;;;;;;5.09;92.21;99255.28;5090867;28;19912;-36
2023/03/05 01:45:01;;;;;;;;;;;;;;;5.17;92.14;99248.31;5090506;28;20375;-36
2023/03/05 01:47:26;;;;;;;;;;;;;;;5.26;92.26;99247.22;5090961;28;20316;-36
2023/03/05 01:49:53;;;;;;;;;;;;;;;5.02;91.90;99251.72;5091140;28;19919;-36
2023/03/05 01:52:20;;;;;;;;;;;;;;;5.00;91.21;99250.28;5090117;28;19927;-36
2023/03/05 01:54:48;;;;;;;;;;;;;;;4.88;91.83;99257.81;5090881;28;19920;-36
2023/03/05 01:57:20;;;;;;;;;;;;;;;4.98;91.80;99245.19;5090978;28;20360;-36
2023/03/05 01:59:47;;;;;;;;;;;;;;;5.04;92.03;99247.09;5090101;28;19923;-36
2023/03/05 02:02:12;;;;;;;;;;;;;;;5.04;91.95;99251.56;5090353;28;19922;-36
2023/03/05 02:04:49;;;;;;;;;;;;;;;5.01;92.47;99247.47;5090580;28;20385;-36
2023/03/05 02:07:15;;;;;;;;;;;;;;;5.07;92.06;99243.28;5089407;28;19919;-36
2023/03/05 02:09:40;;;;;;;;;;;;;;;4.95;92.01;99242.91;5090856;28;20025;-36
2023/03/05 02:12:07;;;;;;;;;;;;;;;5.01;92.79;99236.09;5090876;28;20436;-36
2023/03/05 02:14:32;;;;;;;;;;;;;;;4.98;92.23;99234.63;5090704;28;19912;-36
2023/03/05 02:16:58;;;;;;;;;;;;;;;4.95;92.24;99231.53;5090819;28;20026;-36
2023/03/05 02:19:24;;;;;;;;;;;;;;;4.99;93.36;99225.72;5090870;28;19916;-36
2023/03/05 02:21:49;;;;;;;;;;;;;;;5.11;93.06;99238.47;5090083;28;20327;-36
2023/03/05 02:24:30;;;;;;;;;;;;;;;5.15;92.14;99239.75;5090876;28;19931;-36
2023/03/05 02:26:56;;;;;;;;;;;;;;;5.08;91.60;99229.94;5090558;28;19998;-36
2023/03/05 02:29:21;;;;;;;;;;;;;;;5.01;92.44;99231.66;5090567;28;20363;-36
2023/03/05 02:31:46;;;;;;;;;;;;;;;5.07;93.96;99240.66;5090682;28;19920;-36
2023/03/05 02:34:12;;;;;;;;;;;;;;;5.01;93.60;99239.56;5090426;28;19912;-36
2023/03/05 02:36:37;;;;;;;;;;;;;;;5.02;92.68;99229.81;5090547;28;19922;-36
2023/03/05 02:39:02;;;;;;;;;;;;;;;4.93;91.92;99230.88;5090399;28;20292;-36
2023/03/05 02:41:28;;;;;;;;;;;;;;;4.88;91.82;99228.81;5090486;28;20002;-36
2023/03/05 02:43:53;;;;;;;;;;;;;;;5.02;92.21;99225.34;5090410;28;19958;-37
2023/03/05 02:46:19;;;;;;;;;;;;;;;5.07;91.82;99227.47;5090468;28;19984;-36
2023/03/05 02:48:44;;;;;;;;;;;;;;;5.11;91.36;99230.56;5090173;28;19923;-36
2023/03/05 02:51:09;;;;;;;;;;;;;;;4.94;91.70;99222.00;5090464;28;19912;-36
2023/03/05 02:53:35;;;;;;;;;;;;;;;5.00;93.53;99224.72;5090384;28;19916;-36
2023/03/05 02:56:00;;;;;;;;;;;;;;;4.95;92.67;99219.19;5090399;28;20026;-36
2023/03/05 02:58:25;;;;;;;;;;;;;;;4.85;93.04;99222.03;5090475;28;20413;-36
2023/03/05 03:00:51;;;;;;;;;;;;;;;4.79;92.18;99221.97;5089774;28;20488;-36
2023/03/05 03:03:16;;;;;;;;;;;;;;;4.83;92.95;99233.78;5090250;28;19912;-36
2023/03/05 03:05:41;;;;;;;;;;;;;;;4.89;93.36;99227.78;5090357;28;19912;-36
2023/03/05 03:08:06;;;;;;;;;;;;;;;5.05;92.50;99238.19;5090140;28;19939;-36
2023/03/05 03:10:32;;;;;;;;;;;;;;;4.66;93.41;99233.09;5090139;28;20020;-36
2023/03/05 03:12:58;;;;;;;;;;;;;;;4.65;92.22;99232.28;5089863;28;20011;-36
2023/03/05 03:15:23;;;;;;;;;;;;;;;4.66;92.44;99226.03;5090100;28;20261;-36
2023/03/05 03:17:48;;;;;;;;;;;;;;;4.96;91.80;99223.44;5090121;28;19912;-36
2023/03/05 03:20:15;;;;;;;;;;;;;;;4.76;91.17;99232.84;5089993;28;20356;-36
2023/03/05 03:22:41;;;;;;;;;;;;;;;4.77;92.01;99221.31;5089836;28;20439;-36
2023/03/05 03:25:07;;;;;;;;;;;;;;;4.97;91.25;99230.38;5090134;28;19963;-36
2023/03/05 03:27:32;;;;;;;;;;;;;;;4.85;91.37;99226.50;5089794;28;20010;-36
2023/03/05 03:30:01;;;;;;;;;;;;;;;4.66;91.69;99218.13;5090130;28;19955;-36
2023/03/05 03:32:27;;;;;;;;;;;;;;;4.65;90.87;99221.75;5090239;28;19919;-36
2023/03/05 03:34:52;;;;;;;;;;;;;;;4.46;92.14;99219.59;5093866;28;19999;-36
2023/03/05 03:37:17;;;;;;;;;;;;;;;4.57;90.53;99213.06;5093760;28;20383;-36
2023/03/05 03:39:43;;;;;;;;;;;;;;;4.54;92.25;99221.34;5093644;28;20084;-36
2023/03/05 03:42:08;;;;;;;;;;;;;;;4.72;91.68;99213.13;5093750;28;19947;-36
2023/03/05 03:44:33;;;;;;;;;;;;;;;4.57;91.13;99211.28;5093649;28;19912;-36
2023/03/05 03:46:59;;;;;;;;;;;;;;;4.65;91.76;99213.03;5093702;28;19966;-36
2023/03/05 03:49:24;;;;;;;;;;;;;;;4.79;91.44;99217.50;5093812;28;20030;-36
2023/03/05 03:51:51;;;;;;;;;;;;;;;4.83;90.61;99207.41;5093463;28;20573;-36
2023/03/05 03:54:17;;;;;;;;;;;;;;;4.73;90.94;99207.69;5093687;28;19923;-36
2023/03/05 03:56:43;;;;;;;;;;;;;;;4.78;91.16;99202.69;5093462;28;19912;-36
2023/03/05 03:59:08;;;;;;;;;;;;;;;4.54;91.94;99213.44;5093157;28;19919;-36
2023/03/05 04:01:34;;;;;;;;;;;;;;;4.59;91.92;99206.66;5093135;28;19912;-36
2023/03/05 04:04:00;;;;;;;;;;;;;;;4.68;90.95;99196.84;5093162;28;20384;-36
2023/03/05 04:06:25;;;;;;;;;;;;;;;4.79;90.99;99198.22;5093052;28;19912;-36
2023/03/05 04:08:50;;;;;;;;;;;;;;;4.81;89.76;99212.88;5093205;28;19916;-36
2023/03/05 04:11:18;;;;;;;;;;;;;;;4.57;91.91;99213.91;5093138;28;20586;-36
2023/03/05 04:13:43;;;;;;;;;;;;;;;4.58;90.97;99226.06;5093010;28;19927;-36
2023/03/05 04:16:08;;;;;;;;;;;;;;;4.49;91.76;99232.41;5092942;28;19912;-35
2023/03/05 04:18:34;;;;;;;;;;;;;;;4.62;92.44;99231.81;5092893;28;19912;-35
2023/03/05 04:20:59;;;;;;;;;;;;;;;4.58;91.13;99227.91;5093141;28;20003;-37
2023/03/05 04:23:24;;;;;;;;;;;;;;;4.42;91.02;99223.59;5092671;28;20338;-37
2023/03/05 04:25:50;;;;;;;;;;;;;;;4.35;92.63;99226.09;5093032;28;19923;-37
2023/03/05 04:28:16;;;;;;;;;;;;;;;4.54;93.34;99222.16;5092589;28;19920;-35
2023/03/05 04:30:42;;;;;;;;;;;;;;;4.49;92.46;99221.88;5092826;28;19913;-35
2023/03/05 04:33:07;;;;;;;;;;;;;;;4.23;93.87;99223.06;5092962;28;19919;-36
2023/03/05 04:35:32;;;;;;;;;;;;;;;4.24;93.66;99227.31;5092674;28;19916;-35
2023/03/05 04:37:57;;;;;;;;;;;;;;;4.19;92.71;99224.41;5092638;28;19912;-35
2023/03/05 04:40:23;;;;;;;;;;;;;;;4.16;92.81;99229.19;5092068;28;20054;-35
2023/03/05 04:42:48;;;;;;;;;;;;;;;4.25;92.12;99223.69;5092552;28;19912;-35
2023/03/05 04:45:16;;;;;;;;;;;;;;;4.24;92.30;99218.59;5091949;28;19927;-35
2023/03/05 04:47:41;;;;;;;;;;;;;;;4.36;93.10;99217.22;5092282;28;19916;-36
2023/03/05 04:50:07;;;;;;;;;;;;;;;4.38;92.31;99215.22;5092511;28;19920;-35
2023/03/05 04:52:32;;;;;;;;;;;;;;;4.43;92.14;99222.59;5092182;28;19919;-36
2023/03/05 04:54:57;;;;;;;;;;;;;;;4.53;92.78;99223.16;5092361;28;19912;-35
2023/03/05 04:57:23;;;;;;;;;;;;;;;4.94;89.68;99224.63;5091766;28;19919;-36
2023/03/05 04:59:48;;;;;;;;;;;;;;;4.70;90.07;99219.41;5092231;28;19947;-36
2023/03/05 05:02:13;;;;;;;;;;;;;;;4.44;90.19;99230.31;5092322;28;20257;-36
2023/03/05 05:04:42;;;;;;;;;;;;;;;4.25;89.93;99225.53;5092114;28;19999;-35
2023/03/05 05:07:07;;;;;;;;;;;;;;;4.07;90.80;99231.03;5092358;28;19957;-36
2023/03/05 05:09:32;;;;;;;;;;;;;;;3.98;91.86;99224.19;5092011;28;19920;-35
2023/03/05 05:11:58;;;;;;;;;;;;;;;3.91;92.70;99224.88;5091674;28;19912;-35
2023/03/05 05:14:23;;;;;;;;;;;;;;;3.98;93.40;99219.75;5091811;28;20010;-35
2023/03/05 05:16:48;;;;;;;;;;;;;;;4.20;92.08;99226.03;5091825;28;19912;-35
2023/03/05 05:19:13;;;;;;;;;;;;;;;4.13;91.95;99226.91;5090381;28;19919;-36
2023/03/05 05:21:39;;;;;;;;;;;;;;;4.11;93.29;99224.44;5091489;28;19924;-36
2023/03/05 05:24:04;;;;;;;;;;;;;;;4.46;90.89;99232.78;5091586;28;19923;-36
2023/03/05 05:26:30;;;;;;;;;;;;;;;4.53;89.52;99232.88;5091442;28;19912;-36
2023/03/05 05:28:55;;;;;;;;;;;;;;;4.44;90.11;99234.78;5091533;28;19935;-36
2023/03/05 05:31:20;;;;;;;;;;;;;;;4.41;90.12;99243.81;5091544;28;19912;-36
2023/03/05 05:33:46;;;;;;;;;;;;;;;4.39;91.15;99237.09;5091731;28;20001;-36
2023/03/05 05:36:12;;;;;;;;;;;;;;;4.41;90.84;99240.38;5091316;28;20280;-36
2023/03/05 05:38:38;;;;;;;;;;;;;;;4.36;90.51;99247.97;5091012;28;19920;-36
2023/03/05 05:41:03;;;;;;;;;;;;;;;4.45;91.35;99249.56;5091396;28;19916;-36
2023/03/05 05:43:29;;;;;;;;;;;;;;;4.41;91.03;99251.72;5091326;28;20337;-36
2023/03/05 05:45:57;;;;;;;;;;;;;;;4.39;91.32;99253.72;5089932;28;20420;-36
2023/03/05 05:48:23;;;;;;;;;;;;;;;4.58;89.92;99254.25;5091072;28;19946;-36
2023/03/05 05:50:48;;;;;;;;;;;;;;;6.42;100.00;99256.16;5091231;28;20572;-35
2023/03/05 05:53:14;;;;;;;;;;;;;;;5.69;87.78;99255.31;5091174;28;19999;-35
2023/03/05 05:55:39;;;;;;;;;;;;;;;5.29;88.81;99260.88;5090418;28;19916;-36
2023/03/05 05:58:05;;;;;;;;;;;;;;;5.17;89.01;99262.31;5091184;28;20022;-36
2023/03/05 06:00:30;;;;;;;;;;;;;;;5.27;89.01;99267.31;5091506;28;20380;-36
2023/03/05 06:02:55;;;;;;;;;;;;;;;5.58;86.73;99267.16;5103755;28;19916;-36
2023/03/05 06:05:21;;;;;;;;;;;;;;;5.31;87.17;99270.41;5092235;28;20350;-36
2023/03/05 06:07:46;;;;;;;;;;;;;;;5.06;87.69;99276.78;5091160;28;20300;-36
2023/03/05 06:10:11;;;;;;;;;;;;;;;5.10;88.34;99266.66;5090997;28;19912;-36
2023/03/05 06:12:37;;;;;;;;;;;;;;;4.88;89.79;99271.81;5091010;28;19919;-36
2023/03/05 06:15:02;;;;;;;;;;;;;;;4.98;89.64;99274.19;5091208;28;19916;-37
2023/03/05 06:17:28;;;;;;;;;;;;;;;5.28;90.13;99264.50;5090834;28;19935;-36
2023/03/05 06:19:53;;;;;;;;;;;;;;;5.39;88.93;99265.06;5091022;28;20349;-36
2023/03/05 06:22:19;;;;;;;;;;;;;;;5.30;88.22;99264.31;5090623;28;19927;-35
2023/03/05 06:24:44;;;;;;;;;;;;;;;5.36;88.88;99268.88;5090669;28;20331;-35
2023/03/05 06:27:09;;;;;;;;;;;;;;;5.23;89.95;99268.69;5091085;28;20030;-42
2023/03/05 06:29:34;;;;;;;;;;;;;;;5.37;87.92;99273.16;5090807;28;20378;-42
2023/03/05 06:32:00;;;;;;;;;;;;;;;5.82;86.91;99271.31;5111193;28;20383;-42
2023/03/05 06:34:25;;;;;;;;;;;;;;;5.88;86.09;99270.59;5105475;28;19919;-41
2023/03/05 06:36:50;;;;;;;;;;;;;;;5.54;88.01;99278.25;5091625;28;20415;-42
2023/03/05 06:39:16;;;;;;;;;;;;;;;5.59;88.45;99270.59;5091686;28;19920;-42
2023/03/05 06:41:41;;;;;;;;;;;;;;;5.57;88.30;99283.19;5091381;28;19912;-41
2023/03/05 06:44:06;;;;;;;;;;;;;;;5.51;88.95;99274.16;5091552;28;20003;-44
2023/03/05 06:46:33;;;;;;;;;;;;;;;6.68;86.01;99285.69;5091237;28;19912;-42
2023/03/05 06:48:59;;;;;;;;;;;;;;;6.72;85.42;99273.72;5091565;28;19939;-43
2023/03/05 06:51:29;;;;;;;;;;;;;;;6.65;85.27;99271.03;5091314;28;19919;-43
2023/03/05 06:53:55;;;;;;;;;;;;;;;6.89;85.67;99271.63;5091986;28;20020;-42
2023/03/05 06:56:21;;;;;;;;;;;;;;;7.10;85.01;99268.13;5089981;28;19912;-42
2023/03/05 06:58:48;;;;;;;;;;;;;;;7.85;82.28;99268.38;5090982;28;19915;-41
2023/03/05 07:01:14;;;;;;;;;;;;;;;8.49;80.89;99265.34;5090948;28;19912;-42
2023/03/05 07:03:40;;;;;;;;;;;;;;;8.75;78.91;99261.09;5091398;28;19920;-42
2023/03/05 07:06:07;;;;;;;;;;;;;;;9.07;78.08;99258.66;5091580;28;19977;-41
2023/03/05 07:08:32;;;;;;;;;;;;;;;9.77;80.71;99264.22;5094999;28;19948;-41
2023/03/05 07:10:57;;;;;;;;;;;;;;;10.07;73.80;99261.88;5094742;28;20004;-41
2023/03/05 07:13:23;;;;;;;;;;;;;;;10.29;71.21;99262.34;5093771;28;19969;-41
2023/03/05 07:15:48;;;;;;;;;;;;;;;10.41;68.45;99265.16;5095107;28;19912;-41
2023/03/05 07:18:13;;;;;;;;;;;;;;;10.08;69.68;99268.00;5094801;28;19916;-41
2023/03/05 07:20:39;;;;;;;;;;;;;;;10.65;67.33;99271.56;5094158;28;19932;-41
2023/03/05 07:23:04;;;;;;;;;;;;;;;11.14;66.18;99271.81;5094637;28;19981;-42
2023/03/05 07:25:29;;;;;;;;;;;;;;;11.44;64.44;99271.13;5094534;28;19951;-41
2023/03/05 07:27:55;;;;;;;;;;;;;;;11.85;63.00;99270.47;5094249;28;19916;-42
2023/03/05 07:30:20;;;;;;;;;;;;;;;11.96;61.72;99258.28;5094208;28;19948;-42
2023/03/05 07:32:45;;;;;;;;;;;;;;;11.59;64.51;99268.09;5094100;28;20312;-41
2023/03/05 07:35:11;;;;;;;;;;;;;;;12.16;61.74;99265.19;5094078;28;19926;-42
2023/03/05 07:37:36;;;;;;;;;;;;;;;12.40;62.73;99264.25;5094538;28;20316;-41
2023/03/05 07:40:01;;;;;;;;;;;;;;;12.71;59.01;99259.69;5094679;28;20368;-42
2023/03/05 07:42:26;;;;;;;;;;;;;;;13.01;58.01;99272.97;5094613;28;19912;-41
2023/03/05 07:44:52;;;;;;;;;;;;;;;13.45;56.27;99261.97;5094575;28;19912;-42
2023/03/05 07:47:17;;;;;;;;;;;;;;;13.54;57.29;99263.25;5094133;28;20387;-42
2023/03/05 07:49:43;;;;;;;;;;;;;;;14.06;54.57;99257.88;5094267;28;19919;-41
2023/03/05 07:52:08;;;;;;;;;;;;;;;13.77;55.54;99258.91;5094179;28;19913;-42
2023/03/05 07:54:37;;;;;;;;;;;;;;;13.90;54.80;99255.97;5094010;28;20326;-42
2023/03/05 07:57:03;;;;;;;;;;;;;;;14.37;53.72;99247.75;5093905;28;19923;-42
2023/03/05 07:59:28;;;;;;;;;;;;;;;14.72;53.58;99241.44;5094656;28;19932;-43
2023/03/05 08:01:54;;;;;;;;;;;;;;;14.52;53.74;99239.19;5094341;28;19919;-43
2023/03/05 08:04:19;;;;;;;;;;;;;;;14.81;53.09;99225.75;5094010;28;20456;-42
2023/03/05 08:06:45;;;;;;;;;;;;;;;15.15;51.98;99226.53;5093986;28;19969;-43
2023/03/05 08:09:11;;;;;;;;;;;;;;;15.88;50.81;99225.63;5093565;28;19923;-43
2023/03/05 08:11:36;;;;;;;;;;;;;;;15.47;52.06;99225.91;5094032;28;19916;-43
2023/03/05 08:14:03;;;;;;;;;;;;;;;15.50;52.19;99224.59;5093703;28;20486;-42
2023/03/05 08:16:28;;;;;;;;;;;;;;;15.43;49.98;99217.56;5093577;28;19916;-41
2023/03/05 08:18:55;;;;;;;;;;;;;;;15.10;51.37;99221.13;5093164;28;20426;-42
2023/03/05 08:21:28;;;;;;;;;;;;;;;15.08;49.87;99223.25;5088510;28;19916;-42
2023/03/05 08:23:54;;;;;;;;;;;;;;;15.29;55.24;99218.16;5093564;28;20274;-42
2023/03/05 08:26:20;;;;;;;;;;;;;;;16.52;54.69;99222.28;5093334;28;20453;-42
2023/03/05 08:28:46;;;;;;;;;;;;;;;17.60;48.03;99215.75;5093259;28;19920;-42
2023/03/05 08:31:12;;;;;;;;;;;;;;;18.39;49.68;99211.19;5093226;28;20030;-42
2023/03/05 08:33:37;;;;;;;;;;;;;;;18.87;49.90;99208.25;5093200;28;19912;-42
2023/03/05 08:36:03;;;;;;;;;;;;;;;19.46;49.47;99215.69;5092868;28;19916;-42
2023/03/05 08:38:28;;;;;;;;;;;;;;;19.04;41.75;99195.28;5093639;28;19916;-42
2023/03/05 08:40:53;;;;;;;;;;;;;;;17.19;44.83;99210.16;5093322;28;19979;-43
2023/03/05 08:43:19;;;;;;;;;;;;;;;16.35;46.46;99206.28;5093310;28;20286;-43
2023/03/05 08:45:46;;;;;;;;;;;;;;;15.89;48.02;99200.44;5092808;28;19948;-43
2023/03/05 08:48:11;;;;;;;;;;;;;;;15.52;48.64;99198.38;5093154;28;19916;-41
2023/03/05 08:50:36;;;;;;;;;;;;;;;15.71;49.28;99201.56;5092821;28;19940;-40
2023/03/05 08:53:02;;;;;;;;;;;;;;;16.22;48.36;99189.53;5092793;28;19916;-42
2023/03/05 08:55:27;;;;;;;;;;;;;;;16.44;48.15;99188.63;5096145;28;19916;-42
2023/03/05 08:57:52;;;;;;;;;;;;;;;15.99;48.93;99190.63;5092787;28;19919;-44
2023/03/05 09:00:18;;;;;;;;;;;;;;;16.46;47.75;99186.50;5093005;28;19912;-42
2023/03/05 09:02:43;;;;;;;;;;;;;;;16.68;47.04;99189.13;5093005;28;20312;-43
2023/03/05 09:05:08;;;;;;;;;;;;;;;17.12;46.74;99188.91;5092651;28;19912;-43
2023/03/05 09:07:34;;;;;;;;;;;;;;;17.59;45.79;99188.06;5092340;28;20255;-43
2023/03/05 09:09:59;;;;;;;;;;;;;;;17.90;45.10;99190.09;5092441;28;19985;-42
2023/03/05 09:12:24;;;;;;;;;;;;;;;17.62;45.12;99180.53;5092031;28;19912;-42
2023/03/05 09:14:52;;;;;;;;;;;;;;;16.41;45.66;99178.41;5092247;28;19923;-42
2023/03/05 09:17:18;;;;;;;;;;;;;;;15.41;48.07;99179.47;5092419;28;19912;-42
2023/03/05 09:19:43;;;;;;;;;;;;;;;15.12;49.00;99178.00;5092024;28;20279;-41
2023/03/05 09:22:08;;;;;;;;;;;;;;;15.00;49.45;99175.41;5092424;28;20008;-43
2023/03/05 09:24:33;;;;;;;;;;;;;;;15.77;48.81;99171.88;5092421;28;19927;-43
2023/03/05 09:26:59;;;;;;;;;;;;;;;15.90;48.56;99170.69;5091975;28;19912;-42
2023/03/05 09:29:26;;;;;;;;;;;;;;;15.77;48.72;99163.84;5091494;28;19962;-42
2023/03/05 09:31:51;;;;;;;;;;;;;;;16.12;47.62;99157.19;5091348;28;19940;-42
2023/03/05 09:34:16;;;;;;;;;;;;;;;15.95;47.70;99159.97;5091920;28;20299;-42
2023/03/05 09:36:41;;;;;;;;;;;;;;;15.80;47.70;99154.47;5092438;28;19927;-42
2023/03/05 09:39:07;;;;;;;;;;;;;;;15.94;47.66;99153.00;5092276;28;20362;-42
2023/03/05 09:41:52;;;;;;;;;;;;;;;16.45;46.60;99149.16;5092365;28;20015;-42
2023/03/05 09:44:37;;;;;;;;;;;;;;;16.25;47.47;99147.13;5091842;28;19916;-42
2023/03/05 09:47:21;;;;;;;;;;;;;;;16.73;48.15;99148.84;5092183;28;19944;-42
2023/03/05 09:49:49;;;;;;;;;;;;;;;16.87;45.16;99143.03;5092023;28;19922;-43
2023/03/05 09:52:22;;;;;;;;;;;;;;;16.64;46.22;99145.03;5092008;28;20380;-43
2023/03/05 09:54:51;;;;;;;;;;;;;;;16.33;45.67;99133.22;5100491;28;19911;-42
2023/03/05 09:57:27;;;;;;;;;;;;;;;16.22;45.09;99135.00;5112387;28;19915;-42
2023/03/05 09:59:56;;;;;;;;;;;;;;;16.30;45.38;99134.56;5112366;28;20006;-42
2023/03/05 10:02:24;;;;;;;;;;;;;;;16.15;45.70;99129.06;5111524;28;19919;-42
2023/03/05 10:05:02;;;;;;;;;;;;;;;15.89;46.46;99128.81;5111866;28;19951;-42
2023/03/05 10:07:29;;;;;;;;;;;;;;;16.34;46.09;99124.91;5111486;28;19912;-42
2023/03/05 10:10:00;;;;;;;;;;;;;;;16.14;46.22;99116.69;5111619;28;20027;-42
2023/03/05 10:12:30;;;;;;;;;;;;;;;16.31;46.52;99117.38;5111669;28;20005;-42
2023/03/05 10:14:57;;;;;;;;;;;;;;;16.70;45.96;99116.31;5111363;28;20427;-42
2023/03/05 10:17:28;;;;;;;;;;;;;;;16.99;45.21;99103.34;5111362;28;19919;-42
2023/03/05 10:20:06;;;;;;;;;;;;;;;17.63;43.13;99098.75;5111233;28;19912;-42
2023/03/05 10:22:43;;;;;;;;;;;;;;;16.95;44.38;99097.69;5111311;28;19927;-41
2023/03/05 10:25:20;;;;;;;;;;;;;;;16.92;44.45;99083.97;5111407;28;19972;-41
2023/03/05 10:27:51;;;;;;;;;;;;;;;17.23;43.76;99084.09;5111466;28;19916;-42
2023/03/05 10:30:22;;;;;;;;;;;;;;;16.12;46.14;99084.72;5111328;28;19931;-42
2023/03/05 10:32:48;;;;;;;;;;;;;;;16.41;44.53;99082.56;5096191;28;19916;-43
2023/03/05 10:35:31;;;;;;;;;;;;;;;16.15;45.35;99083.44;5090939;28;19981;-43
2023/03/05 10:38:15;;;;;;;;;;;;;;;16.85;44.28;99076.16;5090827;28;19916;-42
2023/03/05 10:40:51;;;;;;;;;;;;;;;16.85;44.45;99072.63;5090870;28;19966;-42
2023/03/05 10:43:22;;;;;;;;;;;;;;;17.54;42.98;99058.91;5090507;28;19912;-42
2023/03/05 10:45:49;;;;;;;;;;;;;;;17.49;42.46;99052.72;5090658;28;19912;-43
2023/03/05 10:48:33;;;;;;;;;;;;;;;16.61;44.13;99055.00;5090885;28;19916;-43
2023/03/05 10:51:01;;;;;;;;;;;;;;;17.07;44.04;99043.72;5090960;28;19981;-42
2023/03/05 10:53:31;;;;;;;;;;;;;;;17.12;42.77;99040.25;5090652;28;19922;-42
2023/03/05 10:55:59;;;;;;;;;;;;;;;17.17;42.79;99029.50;5108272;28;19943;-42
2023/03/05 10:58:25;;;;;;;;;;;;;;;17.65;41.68;99018.56;5111188;28;20385;-42
2023/03/05 11:01:05;;;;;;;;;;;;;;;17.91;42.14;99014.03;5111141;28;19947;-42
2023/03/05 11:03:49;;;;;;;;;;;;;;;18.20;40.17;99016.19;5111130;28;19911;-42
2023/03/05 11:06:14;;;;;;;;;;;;;;;17.69;41.13;99003.53;5110852;28;20276;-42
2023/03/05 11:08:40;;;;;;;;;;;;;;;17.59;41.33;98997.06;5110937;28;19923;-43
2023/03/05 11:11:08;;;;;;;;;;;;;;;17.43;41.00;98994.63;5111291;28;19919;-43
2023/03/05 11:13:36;;;;;;;;;;;;;;;17.45;41.16;98979.00;5110975;28;20003;-43
2023/03/05 11:16:02;;;;;;;;;;;;;;;17.16;41.16;98980.31;5110898;28;19912;-43
2023/03/05 11:18:33;;;;;;;;;;;;;;;18.18;40.07;98967.97;5111060;28;20007;-43
2023/03/05 11:21:07;;;;;;;;;;;;;;;19.04;38.42;98963.41;5111309;28;19916;-45
2023/03/05 11:23:32;;;;;;;;;;;;;;;19.15;37.71;98950.66;5110858;28;20328;-43
2023/03/05 11:26:03;;;;;;;;;;;;;;;18.64;38.41;98949.00;5110719;28;20010;-43
2023/03/05 11:28:28;;;;;;;;;;;;;;;18.56;38.29;98936.91;5111048;28;19919;-42
2023/03/05 11:31:02;;;;;;;;;;;;;;;18.56;38.25;98936.09;5110762;28;19912;-43
2023/03/05 11:33:29;;;;;;;;;;;;;;;17.37;40.52;98924.69;5111091;28;19964;-41
2023/03/05 11:36:12;;;;;;;;;;;;;;;18.04;39.70;98926.56;5110466;28;19999;-42
2023/03/05 11:39:06;;;;;;;;;;;;;;;18.32;38.56;98933.22;5096611;28;20283;-41
2023/03/05 11:41:43;;;;;;;;;;;;;;;19.12;37.56;98927.75;5080937;28;20013;-41
2023/03/05 11:44:13;;;;;;;;;;;;;;;19.67;36.29;98924.13;5090282;28;19920;-42
2023/03/05 11:47:00;;;;;;;;;;;;;;;19.99;35.25;98920.88;5089357;28;20421;-42
2023/03/05 11:49:26;;;;;;;;;;;;;;;19.47;36.09;98925.09;5090034;28;19916;-41
2023/03/05 11:52:00;;;;;;;;;;;;;;;19.87;35.75;98925.84;5089706;28;19958;-42
2023/03/05 11:54:32;;;;;;;;;;;;;;;20.18;35.33;98923.66;5091415;28;20291;-44
2023/03/05 11:56:59;;;;;;;;;;;;;;;20.58;34.92;98920.75;5093247;28;19916;-41
2023/03/05 11:59:30;;;;;;;;;;;;;;;20.18;34.62;98917.44;5093761;28;20343;-42
2023/03/05 12:01:56;;;;;;;;;;;;;;;20.08;34.56;98918.34;5093726;28;20021;-41
2023/03/05 12:04:22;;;;;;;;;;;;;;;20.22;34.04;98919.28;5093488;28;20367;-42
2023/03/05 12:06:49;;;;;;;;;;;;;;;20.47;33.91;98918.19;5093497;28;19965;-42
2023/03/05 12:09:14;;;;;;;;;;;;;;;20.78;33.64;98911.63;5093213;28;20030;-41
2023/03/05 12:11:39;;;;;;;;;;;;;;;20.13;34.44;98920.22;5092590;28;19977;-41
2023/03/05 12:14:11;;;;;;;;;;;;;;;19.51;34.39;98918.88;5092704;28;19973;-43
2023/03/05 12:16:42;;;;;;;;;;;;;;;20.12;34.31;98911.28;5093131;28;19920;-42
2023/03/05 12:19:07;;;;;;;;;;;;;;;20.11;33.86;98913.19;5093141;28;19920;-42
2023/03/05 12:21:35;;;;;;;;;;;;;;;19.96;34.16;98907.16;5092480;28;20510;-42
2023/03/05 12:24:01;;;;;;;;;;;;;;;19.07;35.37;98905.41;5094617;28;19920;-41
2023/03/05 12:26:45;;;;;;;;;;;;;;;18.60;36.64;98904.00;5092972;28;19913;-42
2023/03/05 12:29:33;;;;;;;;;;;;;;;18.91;36.06;98899.31;5092153;28;19977;-42
2023/03/05 12:32:00;;;;;;;;;;;;;;;19.15;36.38;98894.03;5086902;28;19970;-41
2023/03/05 12:34:41;;;;;;;;;;;;;;;19.04;36.15;98881.69;5092947;28;19912;-42
2023/03/05 12:37:22;;;;;;;;;;;;;;;18.51;36.57;98883.03;5092085;28;19969;-43
2023/03/05 12:40:03;;;;;;;;;;;;;;;18.77;36.67;98891.00;5092942;28;19923;-42
2023/03/05 12:42:28;;;;;;;;;;;;;;;18.75;37.01;98887.78;5085995;28;19912;-42
2023/03/05 12:45:08;;;;;;;;;;;;;;;19.09;36.39;98887.06;5092526;28;20295;-42
2023/03/05 12:47:37;;;;;;;;;;;;;;;18.94;36.57;98879.88;5092735;28;19927;-42
2023/03/05 12:50:03;;;;;;;;;;;;;;;18.65;36.01;98882.44;5092588;28;20025;-42
2023/03/05 12:52:32;;;;;;;;;;;;;;;19.11;36.22;98880.31;5092425;28;19912;-42